Time;durP1;ratioP1;P1;durP2;ratioP2;P2;SDS_P1;SDS_P2;PMS_P1;PMS_P2;Temp;Humidity;BMP_temperature;BMP_pressure;BME280_temperature;BME280_humidity;BME280_pressure;Samples;Min_cycle;Max_cycle;Signal;HPM_P1;HPM_P2
2023/02/15 00:01:51;;;;;;;23.65;16.92;;;2.90;99.90;;;;;;5054091;28;20208;-62
2023/02/15 00:04:21;;;;;;;27.75;16.42;;;2.80;99.90;;;;;;5054133;28;20201;-62
2023/02/15 00:06:48;;;;;;;27.27;15.77;;;2.80;99.90;;;;;;5054341;28;20217;-63
2023/02/15 00:09:15;;;;;;;22.00;14.82;;;2.70;99.90;;;;;;5054276;28;20232;-62
2023/02/15 00:11:43;;;;;;;24.77;15.27;;;2.70;99.90;;;;;;5054052;28;20225;-62
2023/02/15 00:14:12;;;;;;;21.60;15.43;;;2.70;99.90;;;;;;5054128;28;20631;-62
2023/02/15 00:16:39;;;;;;;23.67;15.90;;;2.60;99.90;;;;;;5053717;28;20602;-61
2023/02/15 00:19:08;;;;;;;23.00;15.40;;;2.60;99.90;;;;;;5053803;28;20202;-63
2023/02/15 00:21:36;;;;;;;22.73;15.60;;;2.50;99.90;;;;;;5053761;28;20207;-62
2023/02/15 00:24:06;;;;;;;23.95;15.15;;;2.50;99.90;;;;;;5053472;28;20240;-62
2023/02/15 00:26:33;;;;;;;21.70;14.10;;;2.50;99.90;;;;;;5055461;28;20224;-62
2023/02/15 00:29:00;;;;;;;22.40;15.63;;;2.50;99.90;;;;;;5057539;28;20673;-62
2023/02/15 00:31:30;;;;;;;19.80;13.95;;;2.50;99.90;;;;;;5057616;28;20200;-62
2023/02/15 00:33:57;;;;;;;24.35;16.02;;;2.50;99.90;;;;;;5057690;28;20649;-62
2023/02/15 00:36:25;;;;;;;21.33;15.10;;;2.50;99.90;;;;;;5057269;28;20235;-61
2023/02/15 00:38:51;;;;;;;20.23;13.85;;;2.50;99.90;;;;;;5057666;28;20201;-62
2023/02/15 00:41:18;;;;;;;19.48;14.15;;;2.40;99.90;;;;;;5057582;28;20198;-62
2023/02/15 00:43:45;;;;;;;17.25;13.07;;;2.40;99.90;;;;;;5057294;28;20213;-63
2023/02/15 00:46:12;;;;;;;24.00;13.80;;;2.40;99.90;;;;;;5057155;28;20720;-62
2023/02/15 00:48:39;;;;;;;14.73;11.55;;;2.40;99.90;;;;;;5058261;28;20211;-61
2023/02/15 00:51:05;;;;;;;17.92;13.40;;;2.50;99.90;;;;;;5057616;28;20301;-62
2023/02/15 00:53:33;;;;;;;18.85;12.20;;;2.50;99.90;;;;;;5058056;28;20209;-62
2023/02/15 00:56:00;;;;;;;21.33;14.77;;;2.50;99.90;;;;;;5058194;28;20232;-61
2023/02/15 00:58:27;;;;;;;17.38;13.40;;;2.50;99.90;;;;;;5058022;28;20207;-60
2023/02/15 01:00:54;;;;;;;16.48;12.07;;;2.50;99.90;;;;;;5058131;28;20585;-62
2023/02/15 01:03:22;;;;;;;25.10;13.15;;;2.50;99.90;;;;;;5060544;28;20232;-61
2023/02/15 01:05:50;;;;;;;16.38;11.95;;;2.50;99.90;;;;;;5058925;28;20229;-61
2023/02/15 01:08:17;;;;;;;17.23;12.65;;;2.60;99.90;;;;;;5059242;28;20226;-62
2023/02/15 01:10:46;;;;;;;16.38;12.43;;;2.60;99.90;;;;;;5059408;28;20313;-61
2023/02/15 01:13:15;;;;;;;18.75;12.82;;;2.60;99.90;;;;;;5059433;28;20292;-62
2023/02/15 01:15:42;;;;;;;20.77;12.30;;;2.60;99.90;;;;;;5057881;28;20251;-61
2023/02/15 01:18:08;;;;;;;15.18;10.95;;;2.60;99.90;;;;;;5057561;28;20215;-62
2023/02/15 01:20:38;;;;;;;17.20;12.05;;;2.60;99.90;;;;;;5058039;28;20744;-62
2023/02/15 01:23:06;;;;;;;17.48;12.48;;;2.60;99.90;;;;;;5057958;28;20257;-62
2023/02/15 01:25:34;;;;;;;16.88;11.27;;;2.50;99.90;;;;;;5058156;28;20205;-62
2023/02/15 01:28:03;;;;;;;15.30;11.57;;;2.50;99.90;;;;;;5066311;28;20201;-61
2023/02/15 01:30:29;;;;;;;14.05;11.07;;;2.60;99.90;;;;;;5061158;28;20228;-61
2023/02/15 01:32:57;;;;;;;15.63;11.18;;;2.50;99.90;;;;;;5065895;28;20211;-62
2023/02/15 01:35:24;;;;;;;18.30;11.70;;;2.50;99.90;;;;;;5061783;28;20661;-62
2023/02/15 01:37:50;;;;;;;19.67;11.77;;;2.50;99.90;;;;;;5058264;28;20208;-62
2023/02/15 01:40:18;;;;;;;14.57;10.80;;;2.50;99.90;;;;;;5056645;28;20209;-60
2023/02/15 01:42:45;;;;;;;16.23;11.52;;;2.60;99.90;;;;;;5058764;28;20214;-61
2023/02/15 01:45:22;;;;;;;16.17;11.45;;;2.60;99.90;;;;;;5060039;28;20210;-62
2023/02/15 01:47:54;;;;;;;16.98;12.60;;;2.60;99.90;;;;;;5063132;28;20205;-61
2023/02/15 01:50:25;;;;;;;17.80;11.85;;;2.60;99.90;;;;;;5061382;28;20193;-62
2023/02/15 01:52:56;;;;;;;16.10;11.05;;;2.50;99.90;;;;;;5057594;28;20192;-61
2023/02/15 01:55:25;;;;;;;18.23;13.02;;;2.50;99.90;;;;;;5061312;28;20197;-62
2023/02/15 01:57:53;;;;;;;16.40;12.15;;;2.50;99.90;;;;;;5067206;28;20198;-62
2023/02/15 02:00:22;;;;;;;17.00;11.68;;;2.50;99.90;;;;;;5070448;28;20231;-62
2023/02/15 02:02:53;;;;;;;14.82;11.23;;;2.50;99.90;;;;;;5063090;28;20208;-62
2023/02/15 02:05:20;;;;;;;14.52;10.75;;;2.50;99.90;;;;;;5059454;28;20188;-61
2023/02/15 02:07:49;;;;;;;16.13;11.48;;;2.50;99.90;;;;;;5062915;28;20291;-62
2023/02/15 02:10:19;;;;;;;15.27;11.32;;;2.50;99.90;;;;;;5055848;28;20204;-62
2023/02/15 02:12:48;;;;;;;15.13;10.77;;;2.40;99.90;;;;;;5056041;28;20204;-62
2023/02/15 02:15:15;;;;;;;14.15;11.07;;;2.40;99.90;;;;;;5056005;28;20205;-61
2023/02/15 02:17:56;;;;;;;17.08;11.82;;;2.40;99.90;;;;;;5055202;28;20705;-62
2023/02/15 02:20:53;;;;;;;16.23;11.40;;;2.40;99.90;;;;;;5055832;28;20185;-61
2023/02/15 02:23:34;;;;;;;15.32;10.95;;;2.40;99.90;;;;;;5056175;28;20190;-63
2023/02/15 02:26:26;;;;;;;15.02;11.45;;;2.40;99.90;;;;;;5055980;28;20218;-62
2023/02/15 02:29:30;;;;;;;18.48;10.57;;;2.40;99.90;;;;;;5056274;28;20195;-62
2023/02/15 02:32:21;;;;;;;19.85;12.50;;;2.30;99.90;;;;;;5056071;28;20205;-62
2023/02/15 02:34:56;;;;;;;16.70;11.80;;;2.30;99.90;;;;;;5055897;28;20196;-62
2023/02/15 02:37:30;;;;;;;14.15;11.20;;;2.30;99.90;;;;;;5056038;28;20580;-62
2023/02/15 02:40:03;;;;;;;17.13;11.30;;;2.30;99.90;;;;;;5056474;28;20195;-62
2023/02/15 02:42:37;;;;;;;18.55;12.15;;;2.30;99.90;;;;;;5056082;28;20184;-63
2023/02/15 02:45:07;;;;;;;18.17;11.85;;;2.30;99.90;;;;;;5056561;28;20203;-61
2023/02/15 02:47:40;;;;;;;15.38;10.98;;;2.30;99.90;;;;;;5054872;28;20232;-62
2023/02/15 02:50:10;;;;;;;16.52;12.02;;;2.30;99.90;;;;;;5054292;28;20188;-62
2023/02/15 02:52:43;;;;;;;18.42;12.00;;;2.30;99.90;;;;;;5055099;28;20267;-62
2023/02/15 02:55:15;;;;;;;15.07;13.00;;;2.30;99.90;;;;;;5054787;28;20204;-62
2023/02/15 02:57:52;;;;;;;16.52;11.60;;;2.30;99.90;;;;;;5054937;28;20234;-62
2023/02/15 03:00:21;;;;;;;17.70;10.98;;;2.20;99.90;;;;;;5054738;28;20643;-61
2023/02/15 03:02:51;;;;;;;15.48;12.30;;;2.20;99.90;;;;;;5054839;28;20272;-62
2023/02/15 03:05:26;;;;;;;15.70;11.85;;;2.10;99.90;;;;;;5054725;28;20212;-61
2023/02/15 03:07:56;;;;;;;16.75;11.57;;;2.20;99.90;;;;;;5054469;28;20619;-62
2023/02/15 03:10:25;;;;;;;17.85;12.07;;;2.10;99.90;;;;;;5054904;28;20193;-61
2023/02/15 03:12:53;;;;;;;17.38;12.20;;;2.10;99.90;;;;;;5054944;28;20752;-61
2023/02/15 03:15:22;;;;;;;16.65;11.80;;;2.10;99.90;;;;;;5054359;28;20204;-61
2023/02/15 03:17:53;;;;;;;19.02;13.23;;;2.10;99.90;;;;;;5054153;28;20223;-62
2023/02/15 03:20:26;;;;;;;17.40;12.77;;;2.10;99.90;;;;;;5054373;28;20193;-62
2023/02/15 03:22:56;;;;;;;21.58;13.25;;;2.10;99.90;;;;;;5055118;28;20254;-62
2023/02/15 03:25:26;;;;;;;18.10;12.00;;;2.10;99.90;;;;;;5054841;28;20243;-63
2023/02/15 03:27:56;;;;;;;15.90;11.50;;;2.10;99.90;;;;;;5054900;28;20193;-61
2023/02/15 03:30:24;;;;;;;17.58;11.35;;;2.00;99.90;;;;;;5053977;28;20637;-61
2023/02/15 03:32:53;;;;;;;18.95;12.15;;;2.00;99.90;;;;;;5054310;28;20220;-61
2023/02/15 03:35:26;;;;;;;19.45;12.88;;;2.00;99.90;;;;;;5054171;28;20236;-61
2023/02/15 03:37:58;;;;;;;17.42;12.50;;;2.00;99.90;;;;;;5054584;28;20586;-62
2023/02/15 03:43:18;;;;;;;19.83;12.75;;;2.00;99.90;;;;;;5054758;28;20230;-62
2023/02/15 03:45:55;;;;;;;18.70;13.25;;;1.90;99.90;;;;;;5054244;28;20224;-61
2023/02/15 03:48:25;;;;;;;18.70;12.57;;;2.00;99.90;;;;;;5054805;28;20189;-62
2023/02/15 03:53:44;;;;;;;19.13;13.07;;;2.00;99.90;;;;;;5054547;28;20196;-62
2023/02/15 03:56:10;;;;;;;18.17;12.98;;;2.00;99.90;;;;;;5054101;28;20230;-62
2023/02/15 04:01:57;;;;;;;20.10;12.45;;;2.00;99.90;;;;;;5054081;28;20226;-61
2023/02/15 04:04:28;;;;;;;16.48;12.10;;;2.00;99.90;;;;;;5054374;28;20564;-62
2023/02/15 04:06:56;;;;;;;20.20;14.35;;;2.00;99.90;;;;;;5053701;28;20224;-62
2023/02/15 04:11:10;;;;;;;17.20;11.52;;;1.90;99.90;;;;;;5091868;27;21107;-61
2023/02/15 04:13:37;;;;;;;16.95;11.75;;;1.90;99.90;;;;;;5091939;28;20200;-61
2023/02/15 04:16:03;;;;;;;19.90;13.10;;;1.90;99.90;;;;;;5091587;28;20220;-61
2023/02/15 04:26:45;;;;;;;20.77;13.20;;;1.80;99.90;;;;;;5070862;28;20187;-72
2023/02/15 04:29:12;;;;;;;17.20;12.23;;;1.90;99.90;;;;;;5071948;28;20250;-71
2023/02/15 04:31:39;;;;;;;20.00;12.77;;;1.80;99.90;;;;;;5070344;28;20227;-70
2023/02/15 04:34:06;;;;;;;19.35;12.63;;;1.80;99.90;;;;;;5071632;28;20253;-70
2023/02/15 04:36:32;;;;;;;21.80;12.95;;;1.80;99.90;;;;;;5070520;28;20206;-72
2023/02/15 04:38:59;;;;;;;23.67;13.10;;;1.80;99.90;;;;;;5070856;28;20209;-72
2023/02/15 04:41:26;;;;;;;19.85;13.40;;;1.80;99.90;;;;;;5070661;28;20213;-71
2023/02/15 04:43:57;;;;;;;19.98;12.85;;;1.80;99.90;;;;;;5070692;28;20224;-70
2023/02/15 04:46:24;;;;;;;19.08;12.23;;;1.90;99.90;;;;;;5071757;28;20264;-73
2023/02/15 04:48:50;;;;;;;16.48;12.07;;;1.80;99.90;;;;;;5069922;28;20698;-72
2023/02/15 04:51:17;;;;;;;19.15;13.13;;;1.80;99.90;;;;;;5070727;28;20201;-74
2023/02/15 04:53:44;;;;;;;20.77;12.32;;;1.80;99.90;;;;;;5070311;28;20527;-72
2023/02/15 04:56:11;;;;;;;19.17;13.27;;;1.80;99.90;;;;;;5070201;28;20203;-73
2023/02/15 04:58:40;;;;;;;21.77;12.57;;;1.80;99.90;;;;;;5071076;28;20199;-73
2023/02/15 05:01:09;;;;;;;19.73;12.90;;;1.70;99.90;;;;;;5071969;28;20193;-72
2023/02/15 05:03:36;;;;;;;23.63;14.07;;;1.70;99.90;;;;;;5071307;28;20207;-73
2023/02/15 05:06:03;;;;;;;20.67;12.20;;;1.70;99.90;;;;;;5070012;28;20203;-73
2023/02/15 05:08:31;;;;;;;20.65;12.93;;;1.70;99.90;;;;;;5070865;28;20215;-73
2023/02/15 05:10:58;;;;;;;21.70;13.93;;;1.70;99.90;;;;;;5070846;28;20227;-72
2023/02/15 05:13:25;;;;;;;19.77;13.05;;;1.70;99.90;;;;;;5069730;28;20211;-72
2023/02/15 05:15:53;;;;;;;22.17;15.45;;;1.70;99.90;;;;;;5069177;28;20731;-71
2023/02/15 05:18:22;;;;;;;22.50;13.48;;;1.60;99.90;;;;;;5070445;28;20200;-74
2023/02/15 05:20:49;;;;;;;21.15;14.70;;;1.60;99.90;;;;;;5066006;28;20221;-72
2023/02/15 05:23:17;;;;;;;21.48;14.55;;;1.60;99.90;;;;;;5056625;28;20296;-72
2023/02/15 05:28:32;;;;;;;23.98;13.85;;;1.60;99.90;;;;;;5056806;28;20187;-73
2023/02/15 05:31:05;;;;;;;18.45;13.10;;;1.60;99.90;;;;;;5057058;28;20244;-72
2023/02/15 05:33:34;;;;;;;22.40;13.35;;;1.60;99.90;;;;;;5056581;28;20198;-74
2023/02/15 05:36:01;;;;;;;22.98;13.77;;;1.60;99.90;;;;;;5056018;28;20212;-72
2023/02/15 05:38:28;;;;;;;21.83;14.35;;;1.60;99.90;;;;;;5057691;28;20208;-72
2023/02/15 05:40:55;;;;;;;22.63;14.65;;;1.60;99.90;;;;;;5057129;28;20208;-72
2023/02/15 05:43:23;;;;;;;18.55;12.90;;;1.60;99.90;;;;;;5056790;28;20208;-73
2023/02/15 05:45:51;;;;;;;21.27;13.15;;;1.60;99.90;;;;;;5045672;28;20388;-73
2023/02/15 05:48:19;;;;;;;21.48;13.35;;;1.60;99.90;;;;;;5053459;28;20215;-73
2023/02/15 05:50:57;;;;;;;21.13;14.48;;;1.60;99.90;;;;;;5054537;28;20311;-72
2023/02/15 05:53:24;;;;;;;24.00;15.13;;;1.60;99.90;;;;;;5057563;28;20192;-72
2023/02/15 05:55:50;;;;;;;23.83;15.32;;;1.60;99.90;;;;;;5060417;28;20231;-74
2023/02/15 05:58:17;;;;;;;19.63;14.32;;;1.70;99.90;;;;;;5064405;28;20208;-71
2023/02/15 06:00:44;;;;;;;19.67;13.80;;;1.70;99.90;;;;;;5050952;28;20197;-73
2023/02/15 06:03:11;;;;;;;21.55;15.10;;;1.60;99.90;;;;;;5063573;28;20197;-72
2023/02/15 06:05:38;;;;;;;25.38;15.68;;;1.70;99.90;;;;;;5062183;28;20230;-73
2023/02/15 06:08:06;;;;;;;24.30;15.45;;;1.70;99.90;;;;;;5059207;28;20219;-74
2023/02/15 06:10:33;;;;;;;22.80;15.18;;;1.70;99.90;;;;;;5051913;28;20233;-72
2023/02/15 06:13:00;;;;;;;24.05;15.63;;;1.70;99.90;;;;;;5057597;28;20272;-75
2023/02/15 06:15:27;;;;;;;25.02;15.45;;;1.70;99.90;;;;;;5062288;28;20228;-73
2023/02/15 06:17:54;;;;;;;19.80;13.75;;;1.70;99.90;;;;;;5062518;28;20197;-73
2023/02/15 06:20:20;;;;;;;23.60;16.80;;;1.70;99.90;;;;;;5058771;28;20209;-72
2023/02/15 06:22:47;;;;;;;25.00;15.75;;;1.70;99.90;;;;;;5057467;28;20209;-71
2023/02/15 06:25:16;;;;;;;27.48;15.30;;;1.80;99.90;;;;;;5056657;28;20827;-74
2023/02/15 06:27:43;;;;;;;26.58;15.82;;;1.80;99.90;;;;;;5057108;28;20519;-73
2023/02/15 06:30:11;;;;;;;24.08;15.20;;;1.80;99.90;;;;;;5055333;28;20715;-74
2023/02/15 06:32:38;;;;;;;20.23;14.27;;;1.80;99.90;;;;;;5054341;28;20576;-72
2023/02/15 06:35:05;;;;;;;28.35;17.13;;;1.80;99.90;;;;;;5066426;28;20222;-72
2023/02/15 06:37:33;;;;;;;25.00;14.60;;;1.80;99.90;;;;;;5056574;28;20213;-72
2023/02/15 06:39:59;;;;;;;22.58;16.33;;;1.80;99.90;;;;;;5056103;28;20575;-72
2023/02/15 06:42:28;;;;;;;24.33;13.63;;;1.80;99.90;;;;;;5055531;28;20205;-72
2023/02/15 06:44:55;;;;;;;23.73;14.77;;;1.70;99.90;;;;;;5055505;28;20600;-72
2023/02/15 06:47:21;;;;;;;22.35;15.27;;;1.80;99.90;;;;;;5056326;28;20303;-72
2023/02/15 06:49:48;;;;;;;20.92;14.75;;;1.80;99.90;;;;;;5079049;28;20257;-72
2023/02/15 06:52:15;;;;;;;24.70;15.80;;;1.80;99.90;;;;;;5074814;28;20668;-73
2023/02/15 06:54:42;;;;;;;24.27;14.82;;;1.80;99.90;;;;;;5075362;28;20224;-73
2023/02/15 06:57:09;;;;;;;25.45;14.02;;;1.80;99.90;;;;;;5061647;28;20214;-73
2023/02/15 06:59:37;;;;;;;21.00;14.05;;;1.80;99.90;;;;;;5055569;28;20255;-73
2023/02/15 07:02:04;;;;;;;23.75;15.07;;;1.80;99.90;;;;;;5054037;28;20237;-72
2023/02/15 07:04:31;;;;;;;23.15;13.60;;;1.80;99.90;;;;;;5052464;28;20308;-72
2023/02/15 07:06:57;;;;;;;25.83;16.27;;;1.80;99.90;;;;;;5044323;28;20207;-73
2023/02/15 07:09:24;;;;;;;21.20;13.73;;;1.90;99.90;;;;;;5057418;28;20204;-74
2023/02/15 07:14:37;;;;;;;23.00;14.75;;;2.00;99.90;;;;;;5063827;28;20239;-73
2023/02/15 07:17:04;;;;;;;23.60;15.27;;;2.10;99.90;;;;;;5062795;28;20209;-73
2023/02/15 07:19:31;;;;;;;23.48;15.40;;;2.40;99.90;;;;;;5060894;28;20243;-73
2023/02/15 07:21:58;;;;;;;22.27;14.85;;;2.50;99.90;;;;;;5065176;28;20194;-72
2023/02/15 07:24:25;;;;;;;22.05;14.55;;;2.60;99.90;;;;;;5060041;28;20232;-71
2023/02/15 07:26:51;;;;;;;22.67;15.15;;;2.60;99.90;;;;;;5054977;28;20206;-71
2023/02/15 07:29:18;;;;;;;23.02;15.18;;;2.70;99.90;;;;;;5055971;28;20584;-71
2023/02/15 07:31:46;;;;;;;19.48;13.35;;;2.70;99.90;;;;;;5077527;28;20235;-72
2023/02/15 07:34:13;;;;;;;26.05;14.23;;;2.80;99.90;;;;;;5077087;28;20220;-72
2023/02/15 07:36:40;;;;;;;24.00;14.68;;;2.90;99.90;;;;;;5061906;28;20208;-70
2023/02/15 07:39:07;;;;;;;17.42;12.27;;;2.90;99.90;;;;;;5055387;28;20645;-73
2023/02/15 07:41:34;;;;;;;22.85;15.45;;;3.00;99.90;;;;;;5067184;28;20196;-71
2023/02/15 07:44:01;;;;;;;19.52;13.90;;;3.00;99.90;;;;;;5055486;28;20312;-71
2023/02/15 07:46:27;;;;;;;20.30;12.95;;;3.10;99.90;;;;;;5057445;28;20682;-73
2023/02/15 07:48:56;;;;;;;21.35;13.68;;;3.20;99.90;;;;;;5058541;28;20207;-72
2023/02/15 07:51:23;;;;;;;19.48;13.63;;;3.40;99.90;;;;;;5058032;28;20254;-73
2023/02/15 07:53:51;;;;;;;19.73;14.40;;;3.50;99.90;;;;;;5055992;28;20263;-72
2023/02/15 07:56:18;;;;;;;17.50;12.80;;;3.60;99.90;;;;;;5056068;28;20232;-72
2023/02/15 07:58:55;;;;;;;23.63;15.38;;;3.70;99.90;;;;;;5056234;28;20212;-72
2023/02/15 08:01:25;;;;;;;16.77;12.85;;;3.80;99.90;;;;;;5057436;28;20192;-73
2023/02/15 08:03:52;;;;;;;17.65;12.82;;;3.90;99.90;;;;;;5055755;28;20217;-71
2023/02/15 08:06:20;;;;;;;22.55;13.32;;;4.00;99.90;;;;;;5055347;28;20642;-72
2023/02/15 08:08:47;;;;;;;18.33;13.73;;;4.20;99.90;;;;;;5055571;28;20211;-73
2023/02/15 08:11:36;;;;;;;18.95;13.60;;;4.30;99.90;;;;;;5055813;28;20222;-72
2023/02/15 08:14:05;;;;;;;16.50;12.00;;;4.40;99.90;;;;;;5058119;28;20221;-72
2023/02/15 08:16:35;;;;;;;18.63;13.18;;;4.50;99.90;;;;;;5056600;28;20215;-72
2023/02/15 08:19:04;;;;;;;17.63;12.80;;;4.40;99.90;;;;;;5057715;28;20665;-72
2023/02/15 08:21:33;;;;;;;16.65;12.38;;;4.40;99.90;;;;;;5056857;28;20271;-73
2023/02/15 08:24:00;;;;;;;18.77;15.00;;;4.40;99.90;;;;;;5057752;28;20243;-72
2023/02/15 08:26:28;;;;;;;15.35;11.88;;;4.50;99.90;;;;;;5056270;28;20186;-73
2023/02/15 08:28:56;;;;;;;17.85;12.60;;;4.70;99.90;;;;;;5057375;28;20201;-74
2023/02/15 08:31:24;;;;;;;17.23;12.25;;;4.80;99.90;;;;;;5056785;28;20313;-73
2023/02/15 08:33:52;;;;;;;18.90;12.48;;;5.00;99.90;;;;;;5055420;28;20237;-73
2023/02/15 08:36:21;;;;;;;16.58;12.02;;;5.30;99.90;;;;;;5054937;28;20251;-73
2023/02/15 08:38:49;;;;;;;16.73;11.60;;;5.50;99.90;;;;;;5054362;28;20212;-74
2023/02/15 08:41:18;;;;;;;15.40;11.13;;;5.70;99.90;;;;;;5055931;28;20204;-74
2023/02/15 08:43:46;;;;;;;15.45;10.95;;;5.90;99.90;;;;;;5057028;28;20255;-74
2023/02/15 08:46:14;;;;;;;16.67;11.75;;;6.00;99.90;;;;;;5056017;28;20285;-74
2023/02/15 08:48:42;;;;;;;14.57;11.43;;;6.00;99.90;;;;;;5055188;28;20217;-73
2023/02/15 08:51:11;;;;;;;17.23;12.20;;;5.90;99.90;;;;;;5058275;28;20224;-74
2023/02/15 08:53:39;;;;;;;17.63;13.52;;;5.90;99.90;;;;;;5059083;28;20202;-73
2023/02/15 08:56:08;;;;;;;14.82;11.52;;;5.90;99.90;;;;;;5058721;28;20209;-75
2023/02/15 08:58:36;;;;;;;15.95;12.30;;;5.80;99.90;;;;;;5059232;28;20201;-75
2023/02/15 09:01:10;;;;;;;16.10;11.48;;;5.70;99.90;;;;;;5060530;28;20202;-73
2023/02/15 09:03:36;;;;;;;16.67;10.70;;;5.50;99.90;;;;;;5059734;28;20248;-75
2023/02/15 09:06:04;;;;;;;15.82;11.80;;;5.40;99.90;;;;;;5058607;28;20206;-75
2023/02/15 09:08:31;;;;;;;16.80;10.95;;;5.40;99.90;;;;;;5058290;28;20569;-73
2023/02/15 09:11:08;;;;;;;16.00;10.98;;;5.40;99.90;;;;;;5057781;28;20674;-75
2023/02/15 09:13:35;;;;;;;17.67;12.27;;;5.50;99.90;;;;;;5059058;28;20201;-75
2023/02/15 09:16:03;;;;;;;16.55;11.25;;;5.50;99.90;;;;;;5059111;28;20571;-74
2023/02/15 09:18:33;;;;;;;17.63;13.18;;;5.40;99.90;;;;;;5057559;28;20216;-75
2023/02/15 09:21:05;;;;;;;17.35;11.90;;;5.40;99.90;;;;;;5058293;28;20200;-75
2023/02/15 09:23:32;;;;;;;16.35;11.95;;;5.40;99.90;;;;;;5058752;28;20186;-75
2023/02/15 09:26:04;;;;;;;23.02;13.18;;;5.30;99.90;;;;;;5058220;28;20211;-76
2023/02/15 09:28:33;;;;;;;16.48;10.60;;;5.20;99.90;;;;;;5058158;28;20182;-75
2023/02/15 09:31:06;;;;;;;16.58;12.18;;;5.20;99.90;;;;;;5059792;28;20222;-75
2023/02/15 09:33:34;;;;;;;15.80;12.32;;;5.20;99.90;;;;;;5058999;28;20189;-75
2023/02/15 09:36:01;;;;;;;19.52;11.98;;;5.20;99.90;;;;;;5058363;28;20241;-73
2023/02/15 09:38:28;;;;;;;14.50;10.60;;;5.30;99.90;;;;;;5058754;28;20205;-76
2023/02/15 09:41:14;;;;;;;17.42;11.05;;;5.50;99.90;;;;;;5058338;28;20201;-75
2023/02/15 09:43:50;;;;;;;13.13;10.43;;;5.60;99.90;;;;;;5057288;28;20186;-76
2023/02/15 09:46:29;;;;;;;14.13;10.65;;;5.70;99.90;;;;;;5058801;28;20188;-75
2023/02/15 09:49:08;;;;;;;15.82;10.77;;;5.80;99.90;;;;;;5058584;28;20185;-76
2023/02/15 09:52:09;;;;;;;16.77;10.90;;;5.90;99.90;;;;;;5059413;28;20201;-75
2023/02/15 09:54:50;;;;;;;17.70;10.30;;;6.00;99.90;;;;;;5058844;28;20222;-74
2023/02/15 09:57:23;;;;;;;13.40;10.80;;;6.10;99.90;;;;;;5058174;28;20190;-75
2023/02/15 10:00:00;;;;;;;16.35;12.07;;;6.10;99.90;;;;;;5057726;28;20186;-74
2023/02/15 10:02:42;;;;;;;15.38;11.50;;;6.10;99.90;;;;;;5058169;28;20268;-76
2023/02/15 10:05:22;;;;;;;15.77;11.50;;;6.10;99.90;;;;;;5058775;28;20233;-75
2023/02/15 10:08:20;;;;;;;14.95;10.65;;;6.10;99.90;;;;;;5057703;28;20671;-76
2023/02/15 10:10:56;;;;;;;16.90;11.10;;;6.00;99.90;;;;;;5053701;28;20202;-75
2023/02/15 10:13:33;;;;;;;17.42;10.80;;;6.00;99.90;;;;;;5058080;28;20227;-77
2023/02/15 10:16:20;;;;;;;17.17;11.80;;;6.00;99.90;;;;;;5057363;28;20642;-76
2023/02/15 10:19:01;;;;;;;15.25;10.73;;;6.00;99.90;;;;;;5058397;28;20197;-75
2023/02/15 10:21:40;;;;;;;17.38;12.55;;;6.00;99.90;;;;;;5061423;28;20185;-76
2023/02/15 10:26:44;;;;;;;16.70;11.82;;;6.30;99.90;;;;;;5073727;28;20223;-67
2023/02/15 10:29:18;;;;;;;12.40;10.98;;;6.50;99.90;;;;;;5075320;28;20714;-67
2023/02/15 10:31:50;;;;;;;23.55;11.18;;;6.70;99.90;;;;;;5075660;28;20209;-66
2023/02/15 10:34:18;;;;;;;19.30;12.23;;;6.90;99.90;;;;;;5076108;28;20185;-67
2023/02/15 10:37:13;;;;;;;15.35;11.45;;;7.00;99.90;;;;;;5075553;28;20680;-69
2023/02/15 10:39:49;;;;;;;13.95;10.85;;;7.00;99.90;;;;;;5062467;28;20212;-67
2023/02/15 10:42:27;;;;;;;18.27;11.60;;;7.20;99.90;;;;;;5075554;28;20187;-68
2023/02/15 10:45:10;;;;;;;16.00;12.13;;;7.30;99.90;;;;;;5075084;28;20278;-67
2023/02/15 10:47:50;;;;;;;15.63;10.50;;;7.50;99.90;;;;;;5075908;28;20189;-67
2023/02/15 10:50:37;;;;;;;15.93;10.88;;;7.60;99.90;;;;;;5076770;28;20200;-67
2023/02/15 10:53:25;;;;;;;18.67;12.05;;;7.70;99.90;;;;;;5076447;28;20312;-68
2023/02/15 10:55:59;;;;;;;15.27;11.63;;;7.80;99.90;;;;;;5075982;28;20303;-67
2023/02/15 10:58:39;;;;;;;14.77;10.27;;;7.90;99.90;;;;;;5075487;28;20186;-67
2023/02/15 11:01:15;;;;;;;15.88;11.32;;;8.00;99.90;;;;;;5074766;28;20217;-67
2023/02/15 11:04:05;;;;;;;16.70;11.55;;;8.10;99.90;;;;;;5074073;28;20657;-66
2023/02/15 11:06:34;;;;;;;13.00;10.75;;;8.20;99.90;;;;;;5073787;28;20191;-65
2023/02/15 11:09:04;;;;;;;15.20;10.98;;;8.30;99.90;;;;;;5074206;28;20202;-66
2023/02/15 11:11:35;;;;;;;14.60;11.27;;;8.30;99.90;;;;;;5073937;28;20691;-67
2023/02/15 11:14:06;;;;;;;15.02;11.15;;;8.40;99.90;;;;;;5073795;28;20220;-67
2023/02/15 11:16:37;;;;;;;12.88;9.57;;;8.40;99.90;;;;;;5074029;28;20191;-67
2023/02/15 11:19:12;;;;;;;13.90;10.48;;;8.40;99.90;;;;;;5076804;28;20198;-67
2023/02/15 11:21:44;;;;;;;15.38;11.10;;;8.50;99.90;;;;;;5090890;28;20602;-67
2023/02/15 11:24:13;;;;;;;13.20;10.23;;;8.40;99.90;;;;;;5073691;28;20196;-66
2023/02/15 11:26:44;;;;;;;14.10;10.95;;;8.30;99.90;;;;;;5073663;28;20205;-67
2023/02/15 11:29:20;;;;;;;16.92;10.85;;;8.20;99.90;;;;;;5074081;28;20186;-67
2023/02/15 11:31:50;;;;;;;14.98;10.95;;;8.20;99.90;;;;;;5073997;28;20209;-67
2023/02/15 11:34:23;;;;;;;14.85;10.48;;;8.20;99.90;;;;;;5073989;28;20206;-67
2023/02/15 11:36:52;;;;;;;14.50;10.25;;;8.30;99.90;;;;;;5074191;28;20200;-68
2023/02/15 11:39:21;;;;;;;13.27;10.20;;;8.40;99.90;;;;;;5073814;28;20209;-67
2023/02/15 11:41:53;;;;;;;15.40;10.52;;;8.40;99.90;;;;;;5073702;28;20204;-67
2023/02/15 11:44:23;;;;;;;13.77;9.93;;;8.50;99.90;;;;;;5073798;28;20192;-67
2023/02/15 11:46:50;;;;;;;13.48;10.77;;;8.50;99.10;;;;;;5074957;28;20551;-68
2023/02/15 11:49:24;;;;;;;14.93;10.20;;;8.50;98.80;;;;;;5075966;28;20217;-68
2023/02/15 11:51:52;;;;;;;11.43;10.23;;;8.60;99.00;;;;;;5078056;28;20560;-67
2023/02/15 11:54:21;;;;;;;14.25;10.15;;;8.80;99.00;;;;;;5077506;28;20205;-66
2023/02/15 11:56:48;;;;;;;12.88;10.05;;;8.90;98.60;;;;;;5078682;28;20199;-67
2023/02/15 11:59:22;;;;;;;15.43;10.68;;;9.10;98.10;;;;;;5079146;28;20206;-67
2023/02/15 12:01:49;;;;;;;11.73;9.93;;;9.20;97.60;;;;;;5078126;28;20187;-68
2023/02/15 12:04:25;;;;;;;13.77;10.60;;;9.30;97.30;;;;;;5077217;28;20241;-69
2023/02/15 12:06:56;;;;;;;13.00;10.85;;;9.40;96.70;;;;;;5076208;28;20210;-68
2023/02/15 12:09:30;;;;;;;16.65;10.00;;;9.40;96.10;;;;;;5076783;28;20273;-66
2023/02/15 12:12:22;;;;;;;15.03;11.40;;;9.40;96.00;;;;;;5076731;28;20241;-68
2023/02/15 12:14:50;;;;;;;13.93;9.50;;;9.50;96.20;;;;;;5076985;28;20464;-68
2023/02/15 12:17:18;;;;;;;14.13;10.35;;;9.60;96.00;;;;;;5077755;28;20211;-68
2023/02/15 12:19:50;;;;;;;15.40;10.60;;;9.70;95.30;;;;;;5075429;28;20297;-68
2023/02/15 12:22:23;;;;;;;12.05;9.65;;;9.80;94.80;;;;;;5074917;28;20429;-68
2023/02/15 12:24:52;;;;;;;13.77;10.30;;;9.80;94.40;;;;;;5074583;28;20227;-68
2023/02/15 12:27:21;;;;;;;13.32;9.90;;;9.80;94.30;;;;;;5074327;28;20206;-67
2023/02/15 12:29:50;;;;;;;17.53;11.40;;;9.80;94.20;;;;;;5073654;28;20205;-68
2023/02/15 12:32:20;;;;;;;15.63;10.37;;;9.80;94.00;;;;;;5077910;28;20485;-67
2023/02/15 12:34:50;;;;;;;13.23;10.85;;;9.90;93.80;;;;;;5079062;28;20552;-68
2023/02/15 12:37:19;;;;;;;13.13;10.57;;;9.90;93.80;;;;;;5079181;28;20210;-68
2023/02/15 12:39:55;;;;;;;11.67;10.30;;;9.90;93.70;;;;;;5079798;28;20464;-67
2023/02/15 12:42:23;;;;;;;13.47;10.47;;;10.00;93.10;;;;;;5079799;28;20472;-67
2023/02/15 12:45:01;;;;;;;13.80;10.90;;;10.00;92.90;;;;;;5080035;28;20481;-67
2023/02/15 12:47:30;;;;;;;11.77;10.15;;;10.00;92.90;;;;;;5080060;28;20456;-68
2023/02/15 12:50:17;;;;;;;19.45;11.35;;;10.10;92.80;;;;;;5078675;28;20199;-68
2023/02/15 12:52:46;;;;;;;16.93;11.03;;;10.10;92.60;;;;;;5077475;28;20211;-68
2023/02/15 12:55:21;;;;;;;11.82;9.55;;;10.10;92.10;;;;;;5078685;28;20523;-67
2023/02/15 12:57:50;;;;;;;13.70;10.53;;;10.00;92.10;;;;;;5079654;28;20182;-67
2023/02/15 13:00:31;;;;;;;12.90;10.07;;;9.90;92.70;;;;;;5076952;28;20449;-67
2023/02/15 13:02:59;;;;;;;18.23;11.30;;;10.00;92.30;;;;;;5087482;28;20414;-67
2023/02/15 13:05:36;;;;;;;13.27;10.70;;;10.10;92.30;;;;;;5089552;28;20457;-67
2023/02/15 13:08:10;;;;;;;12.50;10.80;;;10.20;92.10;;;;;;5076795;28;20436;-67
2023/02/15 13:10:41;;;;;;;13.07;10.67;;;10.20;92.00;;;;;;5076552;28;20447;-68
2023/02/15 13:13:11;;;;;;;14.88;11.07;;;10.30;91.80;;;;;;5076800;28;20469;-67
2023/02/15 13:15:42;;;;;;;14.37;10.90;;;10.30;91.60;;;;;;5077148;28;20222;-67
2023/02/15 13:18:16;;;;;;;12.33;10.27;;;10.40;91.30;;;;;;5076391;28;20441;-67
2023/02/15 13:20:45;;;;;;;18.77;13.07;;;10.40;90.90;;;;;;5076531;28;20429;-66